sensor_id;sensor_type;location;lat;lon;timestamp;temperature;humidity
7212;DHT22;3647;48.792;9.802;2024-01-16T06:26:23;-1.20;99.90
7212;DHT22;3647;48.792;9.802;2024-01-16T06:28:50;-1.20;99.90
7212;DHT22;3647;48.792;9.802;2024-01-16T06:41:06;-0.90;99.90
7212;DHT22;3647;48.792;9.802;2024-01-16T06:43:34;-0.90;99.90
7212;DHT22;3647;48.792;9.802;2024-01-16T06:46:01;-0.90;99.90
7212;DHT22;3647;48.792;9.802;2024-01-16T06:48:28;-1.00;99.90
7212;DHT22;3647;48.792;9.802;2024-01-16T06:50:55;-1.00;99.90
7212;DHT22;3647;48.792;9.802;2024-01-16T06:53:22;-0.90;99.90
7212;DHT22;3647;48.792;9.802;2024-01-16T09:10:29;1.60;99.90
7212;DHT22;3647;48.792;9.802;2024-01-16T09:12:56;1.70;99.90
7212;DHT22;3647;48.792;9.802;2024-01-16T09:15:24;1.80;99.90
7212;DHT22;3647;48.792;9.802;2024-01-16T09:17:51;1.90;99.90
7212;DHT22;3647;48.792;9.802;2024-01-16T09:20:18;2.40;99.90
7212;DHT22;3647;48.792;9.802;2024-01-16T09:22:45;2.10;99.90
7212;DHT22;3647;48.792;9.802;2024-01-16T09:25:11;3.00;99.90
7212;DHT22;3647;48.792;9.802;2024-01-16T09:27:40;2.10;99.90
7212;DHT22;3647;48.792;9.802;2024-01-16T09:30:07;2.10;99.90
7212;DHT22;3647;48.792;9.802;2024-01-16T09:32:34;2.10;99.90
7212;DHT22;3647;48.792;9.802;2024-01-16T09:35:02;2.20;99.90
7212;DHT22;3647;48.792;9.802;2024-01-16T09:37:33;2.40;99.90
7212;DHT22;3647;48.792;9.802;2024-01-16T09:40:00;2.40;99.90
7212;DHT22;3647;48.792;9.802;2024-01-16T09:42:27;3.50;99.90
7212;DHT22;3647;48.792;9.802;2024-01-16T09:44:56;3.00;99.90
7212;DHT22;3647;48.792;9.802;2024-01-16T09:47:24;3.40;99.90
7212;DHT22;3647;48.792;9.802;2024-01-16T09:49:52;2.50;99.90
7212;DHT22;3647;48.792;9.802;2024-01-16T09:52:20;2.60;99.90
7212;DHT22;3647;48.792;9.802;2024-01-16T09:54:47;2.70;99.90
7212;DHT22;3647;48.792;9.802;2024-01-16T09:57:15;2.80;99.90
7212;DHT22;3647;48.792;9.802;2024-01-16T09:59:46;2.90;99.90
7212;DHT22;3647;48.792;9.802;2024-01-16T10:02:14;3.00;99.90
7212;DHT22;3647;48.792;9.802;2024-01-16T10:04:41;2.90;99.90
7212;DHT22;3647;48.792;9.802;2024-01-16T10:07:10;2.80;99.90
7212;DHT22;3647;48.792;9.802;2024-01-16T10:09:38;2.90;99.90
7212;DHT22;3647;48.792;9.802;2024-01-16T10:12:05;2.90;99.90
7212;DHT22;3647;48.792;9.802;2024-01-16T10:14:33;3.00;99.90
7212;DHT22;3647;48.792;9.802;2024-01-16T10:17:01;3.00;99.90
7212;DHT22;3647;48.792;9.802;2024-01-16T10:19:32;3.30;99.90
7212;DHT22;3647;48.792;9.802;2024-01-16T10:22:02;3.30;99.90
7212;DHT22;3647;48.792;9.802;2024-01-16T10:24:30;3.20;99.90
7212;DHT22;3647;48.792;9.802;2024-01-16T10:26:58;3.30;99.90
7212;DHT22;3647;48.792;9.802;2024-01-16T10:29:28;3.40;99.90
7212;DHT22;3647;48.792;9.802;2024-01-16T10:31:55;3.40;99.90
7212;DHT22;3647;48.792;9.802;2024-01-16T10:34:22;3.50;99.90
7212;DHT22;3647;48.792;9.802;2024-01-16T10:36:58;3.50;99.90
7212;DHT22;3647;48.792;9.802;2024-01-16T10:39:25;3.60;99.90
7212;DHT22;3647;48.792;9.802;2024-01-16T10:41:55;3.50;99.90
7212;DHT22;3647;48.792;9.802;2024-01-16T10:44:23;3.60;99.90
7212;DHT22;3647;48.792;9.802;2024-01-16T10:46:49;3.70;99.90
7212;DHT22;3647;48.792;9.802;2024-01-16T10:49:16;3.80;99.90
7212;DHT22;3647;48.792;9.802;2024-01-16T10:51:44;3.70;99.90
7212;DHT22;3647;48.792;9.802;2024-01-16T10:54:13;3.80;99.90
7212;DHT22;3647;48.792;9.802;2024-01-16T10:56:44;3.90;99.90
7212;DHT22;3647;48.792;9.802;2024-01-16T10:59:18;4.40;99.90
7212;DHT22;3647;48.792;9.802;2024-01-16T11:01:48;4.10;99.90
7212;DHT22;3647;48.792;9.802;2024-01-16T11:04:15;4.20;99.90
7212;DHT22;3647;48.792;9.802;2024-01-16T11:06:42;4.30;99.90
7212;DHT22;3647;48.792;9.802;2024-01-16T11:09:14;4.40;99.90
7212;DHT22;3647;48.792;9.802;2024-01-16T11:11:43;4.30;99.90
7212;DHT22;3647;48.792;9.802;2024-01-16T11:14:11;6.20;99.90
7212;DHT22;3647;48.792;9.802;2024-01-16T11:16:39;4.50;99.90
7212;DHT22;3647;48.792;9.802;2024-01-16T11:19:08;4.50;99.90
7212;DHT22;3647;48.792;9.802;2024-01-16T11:21:37;4.70;99.90
7212;DHT22;3647;48.792;9.802;2024-01-16T11:24:04;4.50;99.90
7212;DHT22;3647;48.792;9.802;2024-01-16T11:26:34;4.50;99.90
7212;DHT22;3647;48.792;9.802;2024-01-16T11:29:33;4.50;99.90
7212;DHT22;3647;48.792;9.802;2024-01-16T11:32:01;4.60;99.90
7212;DHT22;3647;48.792;9.802;2024-01-16T11:34:53;4.60;99.90
7212;DHT22;3647;48.792;9.802;2024-01-16T11:37:28;4.60;99.90
7212;DHT22;3647;48.792;9.802;2024-01-16T11:40:22;4.60;99.90
7212;DHT22;3647;48.792;9.802;2024-01-16T11:42:52;4.60;99.90
7212;DHT22;3647;48.792;9.802;2024-01-16T11:45:47;4.70;99.90
7212;DHT22;3647;48.792;9.802;2024-01-16T11:48:15;4.70;99.90
7212;DHT22;3647;48.792;9.802;2024-01-16T11:50:42;5.50;99.90
7212;DHT22;3647;48.792;9.802;2024-01-16T11:53:09;4.80;99.90
7212;DHT22;3647;48.792;9.802;2024-01-16T11:55:47;4.90;99.90
7212;DHT22;3647;48.792;9.802;2024-01-16T11:58:33;4.90;99.90
7212;DHT22;3647;48.792;9.802;2024-01-16T12:01:05;4.90;99.90
7212;DHT22;3647;48.792;9.802;2024-01-16T12:03:32;4.90;99.90
7212;DHT22;3647;48.792;9.802;2024-01-16T12:06:00;5.10;99.90
7212;DHT22;3647;48.792;9.802;2024-01-16T12:08:27;6.50;99.90
7212;DHT22;3647;48.792;9.802;2024-01-16T12:10:55;5.30;99.90
7212;DHT22;3647;48.792;9.802;2024-01-16T12:13:23;6.50;99.90
7212;DHT22;3647;48.792;9.802;2024-01-16T12:15:59;5.20;99.90
7212;DHT22;3647;48.792;9.802;2024-01-16T12:18:26;5.30;99.90
7212;DHT22;3647;48.792;9.802;2024-01-16T12:20:54;5.60;99.90
7212;DHT22;3647;48.792;9.802;2024-01-16T12:23:20;4.90;99.90
7212;DHT22;3647;48.792;9.802;2024-01-16T12:25:52;5.00;99.90
7212;DHT22;3647;48.792;9.802;2024-01-16T12:28:21;6.00;99.90
7212;DHT22;3647;48.792;9.802;2024-01-16T12:30:50;5.10;99.90
7212;DHT22;3647;48.792;9.802;2024-01-16T12:33:22;5.50;99.90
7212;DHT22;3647;48.792;9.802;2024-01-16T12:35:49;5.20;99.90
7212;DHT22;3647;48.792;9.802;2024-01-16T12:38:16;5.20;99.90
7212;DHT22;3647;48.792;9.802;2024-01-16T12:40:45;5.00;99.90
7212;DHT22;3647;48.792;9.802;2024-01-16T12:43:13;4.90;99.90
7212;DHT22;3647;48.792;9.802;2024-01-16T12:45:40;4.60;99.90
7212;DHT22;3647;48.792;9.802;2024-01-16T12:48:08;4.60;99.90
7212;DHT22;3647;48.792;9.802;2024-01-16T12:50:35;4.70;99.90
7212;DHT22;3647;48.792;9.802;2024-01-16T12:53:03;4.60;99.90
7212;DHT22;3647;48.792;9.802;2024-01-16T12:55:31;6.80;99.90
7212;DHT22;3647;48.792;9.802;2024-01-16T12:58:15;4.70;99.90
7212;DHT22;3647;48.792;9.802;2024-01-16T13:00:42;4.80;99.90
7212;DHT22;3647;48.792;9.802;2024-01-16T13:03:16;5.30;99.90
7212;DHT22;3647;48.792;9.802;2024-01-16T13:05:44;5.00;99.90
7212;DHT22;3647;48.792;9.802;2024-01-16T13:08:17;5.00;99.90
7212;DHT22;3647;48.792;9.802;2024-01-16T13:10:46;4.90;99.90
7212;DHT22;3647;48.792;9.802;2024-01-16T13:13:14;5.50;99.90
7212;DHT22;3647;48.792;9.802;2024-01-16T13:15:42;4.90;99.90
7212;DHT22;3647;48.792;9.802;2024-01-16T13:18:20;4.90;99.90
7212;DHT22;3647;48.792;9.802;2024-01-16T13:20:50;5.00;99.90
7212;DHT22;3647;48.792;9.802;2024-01-16T13:23:17;5.00;99.90
7212;DHT22;3647;48.792;9.802;2024-01-16T13:25:46;5.30;99.90
7212;DHT22;3647;48.792;9.802;2024-01-16T13:28:13;5.40;99.90
7212;DHT22;3647;48.792;9.802;2024-01-16T13:30:40;5.40;99.90
7212;DHT22;3647;48.792;9.802;2024-01-16T13:33:07;5.60;99.90
7212;DHT22;3647;48.792;9.802;2024-01-16T13:35:38;5.70;99.90
7212;DHT22;3647;48.792;9.802;2024-01-16T13:38:06;5.80;99.90
7212;DHT22;3647;48.792;9.802;2024-01-16T13:40:34;5.80;99.90
7212;DHT22;3647;48.792;9.802;2024-01-16T13:43:01;7.00;99.90
7212;DHT22;3647;48.792;9.802;2024-01-16T13:45:28;5.80;99.90
7212;DHT22;3647;48.792;9.802;2024-01-16T13:47:55;6.80;99.90
7212;DHT22;3647;48.792;9.802;2024-01-16T13:50:22;5.50;99.90
7212;DHT22;3647;48.792;9.802;2024-01-16T13:52:50;5.40;99.90
7212;DHT22;3647;48.792;9.802;2024-01-16T13:55:18;5.30;99.90
7212;DHT22;3647;48.792;9.802;2024-01-16T13:57:45;5.30;99.90
7212;DHT22;3647;48.792;9.802;2024-01-16T14:00:13;5.20;99.90
7212;DHT22;3647;48.792;9.802;2024-01-16T14:02:41;5.30;99.90
7212;DHT22;3647;48.792;9.802;2024-01-16T14:05:08;5.40;99.90
7212;DHT22;3647;48.792;9.802;2024-01-16T14:07:36;5.40;99.90
7212;DHT22;3647;48.792;9.802;2024-01-16T14:10:08;7.40;99.90
7212;DHT22;3647;48.792;9.802;2024-01-16T14:12:37;5.50;99.90
7212;DHT22;3647;48.792;9.802;2024-01-16T14:15:05;5.40;99.90
7212;DHT22;3647;48.792;9.802;2024-01-16T14:17:41;5.40;99.90
7212;DHT22;3647;48.792;9.802;2024-01-16T14:20:09;6.10;99.90
7212;DHT22;3647;48.792;9.802;2024-01-16T14:22:36;5.20;99.90
7212;DHT22;3647;48.792;9.802;2024-01-16T14:25:06;5.00;99.90
7212;DHT22;3647;48.792;9.802;2024-01-16T14:27:37;4.80;99.90
7212;DHT22;3647;48.792;9.802;2024-01-16T14:30:05;4.80;99.90
7212;DHT22;3647;48.792;9.802;2024-01-16T14:32:33;4.60;99.90
7212;DHT22;3647;48.792;9.802;2024-01-16T14:35:00;6.90;99.90
7212;DHT22;3647;48.792;9.802;2024-01-16T14:37:27;7.00;99.90
7212;DHT22;3647;48.792;9.802;2024-01-16T14:39:54;4.50;99.90
7212;DHT22;3647;48.792;9.802;2024-01-16T14:42:22;4.50;99.90
7212;DHT22;3647;48.792;9.802;2024-01-16T14:44:49;4.50;99.90
7212;DHT22;3647;48.792;9.802;2024-01-16T14:47:16;4.40;99.90
7212;DHT22;3647;48.792;9.802;2024-01-16T14:49:43;3.70;99.90
7212;DHT22;3647;48.792;9.802;2024-01-16T14:52:10;4.30;99.90
7212;DHT22;3647;48.792;9.802;2024-01-16T14:54:38;4.20;99.90
7212;DHT22;3647;48.792;9.802;2024-01-16T14:57:05;3.80;99.90
7212;DHT22;3647;48.792;9.802;2024-01-16T14:59:33;3.60;99.90
7212;DHT22;3647;48.792;9.802;2024-01-16T15:02:00;3.60;99.90
7212;DHT22;3647;48.792;9.802;2024-01-16T15:04:38;3.40;99.90
7212;DHT22;3647;48.792;9.802;2024-01-16T15:07:04;5.20;99.90
7212;DHT22;3647;48.792;9.802;2024-01-16T15:09:31;6.20;99.90
7212;DHT22;3647;48.792;9.802;2024-01-16T15:12:00;3.10;99.90
7212;DHT22;3647;48.792;9.802;2024-01-16T15:14:27;3.50;99.90
7212;DHT22;3647;48.792;9.802;2024-01-16T15:16:55;3.40;99.90
7212;DHT22;3647;48.792;9.802;2024-01-16T15:19:22;5.30;99.90
7212;DHT22;3647;48.792;9.802;2024-01-16T15:21:48;2.90;99.90
7212;DHT22;3647;48.792;9.802;2024-01-16T15:29:18;2.70;99.90
7212;DHT22;3647;48.792;9.802;2024-01-16T15:31:45;2.60;99.90
7212;DHT22;3647;48.792;9.802;2024-01-16T15:34:14;4.20;99.90
7212;DHT22;3647;48.792;9.802;2024-01-16T15:36:41;2.50;99.90
7212;DHT22;3647;48.792;9.802;2024-01-16T15:39:08;2.40;99.90
7212;DHT22;3647;48.792;9.802;2024-01-16T15:41:36;2.40;99.90
7212;DHT22;3647;48.792;9.802;2024-01-16T15:44:03;2.20;99.90
7212;DHT22;3647;48.792;9.802;2024-01-16T15:46:31;2.00;99.90
7212;DHT22;3647;48.792;9.802;2024-01-16T15:48:58;2.00;99.90
7212;DHT22;3647;48.792;9.802;2024-01-16T15:51:26;2.00;99.90
7212;DHT22;3647;48.792;9.802;2024-01-16T15:53:53;1.90;99.90
7212;DHT22;3647;48.792;9.802;2024-01-16T15:56:20;1.70;99.90
7212;DHT22;3647;48.792;9.802;2024-01-16T15:58:49;2.30;99.90
7212;DHT22;3647;48.792;9.802;2024-01-16T16:01:16;1.60;99.90
7212;DHT22;3647;48.792;9.802;2024-01-16T16:03:44;1.50;99.90
7212;DHT22;3647;48.792;9.802;2024-01-16T16:06:11;1.70;99.90
7212;DHT22;3647;48.792;9.802;2024-01-16T16:08:40;3.90;99.90
7212;DHT22;3647;48.792;9.802;2024-01-16T16:11:07;-0.30;99.90
7212;DHT22;3647;48.792;9.802;2024-01-16T16:13:34;1.10;99.90
7212;DHT22;3647;48.792;9.802;2024-01-16T16:16:01;1.00;99.90
7212;DHT22;3647;48.792;9.802;2024-01-16T16:18:28;1.60;99.90
7212;DHT22;3647;48.792;9.802;2024-01-16T16:20:55;0.90;99.90
7212;DHT22;3647;48.792;9.802;2024-01-16T16:23:22;0.90;99.90
7212;DHT22;3647;48.792;9.802;2024-01-16T16:25:50;1.60;99.90
7212;DHT22;3647;48.792;9.802;2024-01-16T16:30:45;0.60;99.90
7212;DHT22;3647;48.792;9.802;2024-01-16T16:33:12;2.70;99.90
7212;DHT22;3647;48.792;9.802;2024-01-16T16:35:39;0.60;99.90
7212;DHT22;3647;48.792;9.802;2024-01-16T16:38:06;0.30;99.90
7212;DHT22;3647;48.792;9.802;2024-01-16T16:40:36;0.50;99.90
7212;DHT22;3647;48.792;9.802;2024-01-16T16:43:07;0.30;99.90
7212;DHT22;3647;48.792;9.802;2024-01-16T16:45:35;0.90;99.90
7212;DHT22;3647;48.792;9.802;2024-01-16T16:48:03;1.00;99.90
7212;DHT22;3647;48.792;9.802;2024-01-16T16:50:30;0.10;99.90
7212;DHT22;3647;48.792;9.802;2024-01-16T16:52:57;0.10;99.90
7212;DHT22;3647;48.792;9.802;2024-01-16T16:55:25;0.00;99.90
7212;DHT22;3647;48.792;9.802;2024-01-16T16:57:53;0.80;99.90
7212;DHT22;3647;48.792;9.802;2024-01-16T17:00:22;0.10;99.90
7212;DHT22;3647;48.792;9.802;2024-01-16T17:05:16;-0.10;99.90
7212;DHT22;3647;48.792;9.802;2024-01-16T17:07:44;0.00;99.90
7212;DHT22;3647;48.792;9.802;2024-01-16T17:12:41;-0.20;99.90
7212;DHT22;3647;48.792;9.802;2024-01-16T17:15:09;2.60;99.90
7212;DHT22;3647;48.792;9.802;2024-01-16T17:17:38;-1.10;99.90
7212;DHT22;3647;48.792;9.802;2024-01-16T17:20:07;-0.30;99.90
7212;DHT22;3647;48.792;9.802;2024-01-16T17:25:05;2.10;99.90
7212;DHT22;3647;48.792;9.802;2024-01-16T17:27:33;-0.40;99.90
7212;DHT22;3647;48.792;9.802;2024-01-16T17:30:00;2.90;99.90
7212;DHT22;3647;48.792;9.802;2024-01-16T17:32:27;-0.40;99.90
7212;DHT22;3647;48.792;9.802;2024-01-16T17:34:56;-0.40;99.90
7212;DHT22;3647;48.792;9.802;2024-01-16T17:37:24;0.80;99.90
7212;DHT22;3647;48.792;9.802;2024-01-16T17:42:20;2.00;99.90
7212;DHT22;3647;48.792;9.802;2024-01-16T17:44:48;-0.30;99.90
7212;DHT22;3647;48.792;9.802;2024-01-16T17:47:19;2.70;99.90
7212;DHT22;3647;48.792;9.802;2024-01-16T17:49:51;-2.30;99.90
7212;DHT22;3647;48.792;9.802;2024-01-16T17:52:23;-0.60;99.90
7212;DHT22;3647;48.792;9.802;2024-01-16T17:54:51;-0.70;99.90
7212;DHT22;3647;48.792;9.802;2024-01-16T17:57:22;-1.60;99.90
7212;DHT22;3647;48.792;9.802;2024-01-16T18:02:17;-0.80;99.90
7212;DHT22;3647;48.792;9.802;2024-01-16T18:04:45;-0.40;99.90
7212;DHT22;3647;48.792;9.802;2024-01-16T18:07:17;1.30;99.90
7212;DHT22;3647;48.792;9.802;2024-01-16T18:09:49;-0.20;99.90
7212;DHT22;3647;48.792;9.802;2024-01-16T18:12:20;-0.40;99.90
7212;DHT22;3647;48.792;9.802;2024-01-16T18:14:53;-0.90;99.90
7212;DHT22;3647;48.792;9.802;2024-01-16T18:19:48;-2.60;99.90
7212;DHT22;3647;48.792;9.802;2024-01-16T18:24:48;-1.10;99.90
7212;DHT22;3647;48.792;9.802;2024-01-16T18:27:18;1.30;99.90
7212;DHT22;3647;48.792;9.802;2024-01-16T18:32:15;-0.50;99.90
7212;DHT22;3647;48.792;9.802;2024-01-16T18:42:10;-1.40;99.90
7212;DHT22;3647;48.792;9.802;2024-01-16T18:49:35;-0.60;99.90
7212;DHT22;3647;48.792;9.802;2024-01-16T18:54:34;-1.60;99.90
7212;DHT22;3647;48.792;9.802;2024-01-16T18:57:06;-1.70;99.90
7212;DHT22;3647;48.792;9.802;2024-01-16T18:59:39;-1.50;99.90
7212;DHT22;3647;48.792;9.802;2024-01-16T19:02:08;-1.60;99.90
7212;DHT22;3647;48.792;9.802;2024-01-16T19:04:37;-1.80;99.90
7212;DHT22;3647;48.792;9.802;2024-01-16T19:07:12;-0.30;99.90
7212;DHT22;3647;48.792;9.802;2024-01-16T19:12:11;-3.90;99.90
7212;DHT22;3647;48.792;9.802;2024-01-16T19:14:43;-1.60;99.90
7212;DHT22;3647;48.792;9.802;2024-01-16T19:19:41;1.20;99.90
7212;DHT22;3647;48.792;9.802;2024-01-16T19:24:37;-1.70;99.90
7212;DHT22;3647;48.792;9.802;2024-01-16T19:32:04;-1.90;99.90
7212;DHT22;3647;48.792;9.802;2024-01-16T19:37:00;-1.90;99.90
7212;DHT22;3647;48.792;9.802;2024-01-16T19:39:32;0.70;99.90
7212;DHT22;3647;48.792;9.802;2024-01-16T19:42:08;-2.40;99.90
7212;DHT22;3647;48.792;9.802;2024-01-16T19:44:37;-2.30;99.90
7212;DHT22;3647;48.792;9.802;2024-01-16T19:47:08;-2.20;99.90
7212;DHT22;3647;48.792;9.802;2024-01-16T19:49:36;-3.30;99.90
7212;DHT22;3647;48.792;9.802;2024-01-16T19:52:11;-2.10;99.90
7212;DHT22;3647;48.792;9.802;2024-01-16T19:54:44;0.70;99.90
7212;DHT22;3647;48.792;9.802;2024-01-16T19:59:44;-2.20;99.90
7212;DHT22;3647;48.792;9.802;2024-01-16T20:02:13;-2.30;99.90
7212;DHT22;3647;48.792;9.802;2024-01-16T20:04:41;-2.30;99.90
7212;DHT22;3647;48.792;9.802;2024-01-16T20:07:09;-2.60;99.90
7212;DHT22;3647;48.792;9.802;2024-01-16T20:09:38;-2.30;99.90
7212;DHT22;3647;48.792;9.802;2024-01-16T20:12:06;-2.30;99.90
7212;DHT22;3647;48.792;9.802;2024-01-16T20:14:38;-2.30;99.90
7212;DHT22;3647;48.792;9.802;2024-01-16T20:17:07;-2.40;99.90
7212;DHT22;3647;48.792;9.802;2024-01-16T20:19:37;-2.20;99.90
7212;DHT22;3647;48.792;9.802;2024-01-16T20:31:59;-2.40;99.90
7212;DHT22;3647;48.792;9.802;2024-01-16T20:37:01;-2.60;99.90
7212;DHT22;3647;48.792;9.802;2024-01-16T20:54:22;-2.40;99.90
7212;DHT22;3647;48.792;9.802;2024-01-16T20:56:54;-0.60;99.90
7212;DHT22;3647;48.792;9.802;2024-01-16T21:11:45;-2.80;99.90
7212;DHT22;3647;48.792;9.802;2024-01-16T21:28:58;-2.90;99.90
7212;DHT22;3647;48.792;9.802;2024-01-16T21:33:52;-2.90;99.90
7212;DHT22;3647;48.792;9.802;2024-01-16T21:46:10;-3.10;99.90
7212;DHT22;3647;48.792;9.802;2024-01-16T21:48:38;-3.10;99.90
7212;DHT22;3647;48.792;9.802;2024-01-16T21:51:05;-3.10;99.90
7212;DHT22;3647;48.792;9.802;2024-01-16T21:53:33;-3.20;99.90
7212;DHT22;3647;48.792;9.802;2024-01-16T21:56:01;-3.20;99.90
7212;DHT22;3647;48.792;9.802;2024-01-16T21:58:30;-3.30;99.90
7212;DHT22;3647;48.792;9.802;2024-01-16T22:03:25;-3.20;99.90
7212;DHT22;3647;48.792;9.802;2024-01-16T22:08:22;-3.20;99.90
7212;DHT22;3647;48.792;9.802;2024-01-16T22:18:11;-3.40;99.90
7212;DHT22;3647;48.792;9.802;2024-01-16T22:20:39;-3.30;99.90
7212;DHT22;3647;48.792;9.802;2024-01-16T22:23:06;-3.30;99.90
7212;DHT22;3647;48.792;9.802;2024-01-16T22:25:32;-3.30;99.90
7212;DHT22;3647;48.792;9.802;2024-01-16T22:27:59;-3.20;99.90
7212;DHT22;3647;48.792;9.802;2024-01-16T22:37:49;-3.20;99.90
7212;DHT22;3647;48.792;9.802;2024-01-16T22:45:11;-3.30;99.90
